createdAt,value
2022-09-20T00:00:27.269Z,9.91
2022-09-20T00:01:27.332Z,9.89
2022-09-20T00:02:27.247Z,9.89
2022-09-20T00:03:27.251Z,9.88
2022-09-20T00:04:27.263Z,9.85
2022-09-20T00:05:27.289Z,9.85
2022-09-20T00:06:27.218Z,9.85
2022-09-20T00:07:27.206Z,9.85
2022-09-20T00:08:27.199Z,9.83
2022-09-20T00:09:27.223Z,9.77
2022-09-20T00:10:27.181Z,9.81
2022-09-20T00:11:27.184Z,9.78
2022-09-20T00:12:27.170Z,9.78
2022-09-20T00:13:27.167Z,9.77
2022-09-20T00:14:27.151Z,9.77
2022-09-20T00:15:27.165Z,9.74
2022-09-20T00:16:27.162Z,9.75
2022-09-20T00:17:27.131Z,9.74
2022-09-20T00:18:27.112Z,9.73
2022-09-20T00:19:27.112Z,9.71
2022-09-20T00:20:27.095Z,9.71
2022-09-20T00:21:27.113Z,9.70
2022-09-20T00:22:27.096Z,9.67
2022-09-20T00:23:27.074Z,9.67
2022-09-20T00:24:27.064Z,9.65
2022-09-20T00:25:27.063Z,9.63
2022-09-20T00:26:27.065Z,9.62
2022-09-20T00:27:27.078Z,9.62
2022-09-20T00:28:27.034Z,9.60
2022-09-20T00:29:27.039Z,9.58
2022-09-20T00:30:27.030Z,9.59
2022-09-20T00:31:27.066Z,9.58
2022-09-20T00:32:26.996Z,9.58
2022-09-20T00:33:27.007Z,9.55
2022-09-20T00:34:26.986Z,9.53
2022-09-20T00:35:26.977Z,9.50
2022-09-20T00:36:26.968Z,9.49
2022-09-20T00:37:26.968Z,9.48
2022-09-20T00:38:26.968Z,9.45
2022-09-20T00:39:26.972Z,9.42
2022-09-20T00:40:27.067Z,9.41
2022-09-20T00:41:26.943Z,9.40
2022-09-20T00:42:26.932Z,9.38
2022-09-20T00:43:26.920Z,9.37
2022-09-20T00:44:26.913Z,9.37
2022-09-20T00:45:26.923Z,9.34
2022-09-20T00:46:26.955Z,9.35
2022-09-20T00:47:26.879Z,9.35
2022-09-20T00:48:26.883Z,9.34
2022-09-20T00:49:26.861Z,9.32
2022-09-20T00:50:26.851Z,9.32
2022-09-20T00:51:26.861Z,9.31
2022-09-20T00:52:26.832Z,9.31
2022-09-20T00:53:26.845Z,9.30
2022-09-20T00:54:26.825Z,9.30
2022-09-20T00:55:26.826Z,9.30
2022-09-20T00:56:26.816Z,9.26
2022-09-20T00:57:26.837Z,9.30
2022-09-20T00:58:26.798Z,9.27
2022-09-20T00:59:26.785Z,9.30
2022-09-20T01:00:26.764Z,9.27
2022-09-20T01:01:26.811Z,9.26
2022-09-20T01:02:26.846Z,9.24
2022-09-20T01:03:26.765Z,9.30
2022-09-20T01:04:26.751Z,9.26
2022-09-20T01:05:26.726Z,9.27
2022-09-20T01:06:26.730Z,9.30
2022-09-20T01:07:26.714Z,9.26
2022-09-20T01:08:26.697Z,9.27
2022-09-20T01:09:26.727Z,9.26
2022-09-20T01:10:26.700Z,9.27
2022-09-20T01:11:26.694Z,9.26
2022-09-20T01:12:26.667Z,9.26
2022-09-20T01:13:26.667Z,9.26
2022-09-20T01:14:26.662Z,9.30
2022-09-20T01:15:26.666Z,9.26
2022-09-20T01:16:26.788Z,9.27
2022-09-20T01:17:26.643Z,9.24
2022-09-20T01:18:26.629Z,9.24
2022-09-20T01:19:26.622Z,9.24
2022-09-20T01:20:26.614Z,9.26
2022-09-20T01:21:26.609Z,9.23
2022-09-20T01:22:26.594Z,9.23
2022-09-20T01:23:26.593Z,9.23
2022-09-20T01:24:26.570Z,9.22
2022-09-20T01:25:26.563Z,9.19
2022-09-20T01:26:26.552Z,9.20
2022-09-20T01:27:26.582Z,9.17
2022-09-20T01:28:26.536Z,9.16
2022-09-20T01:29:26.522Z,9.17
2022-09-20T01:30:26.526Z,9.16
2022-09-20T01:31:26.616Z,9.16
2022-09-20T01:32:26.530Z,9.15
2022-09-20T01:33:26.527Z,9.15
2022-09-20T01:34:26.502Z,9.13
2022-09-20T01:35:26.488Z,9.12
2022-09-20T01:36:26.494Z,9.16
2022-09-20T01:37:26.454Z,9.10
2022-09-20T01:38:26.444Z,9.13
2022-09-20T01:39:26.480Z,9.10
2022-09-20T01:40:26.480Z,9.12
2022-09-20T01:41:26.425Z,9.10
2022-09-20T01:42:26.416Z,9.10
2022-09-20T01:43:26.419Z,9.06
2022-09-20T01:44:26.411Z,9.08
2022-09-20T01:45:26.451Z,9.03
2022-09-20T01:46:26.378Z,9.06
2022-09-20T01:47:26.378Z,9.04
2022-09-20T01:48:26.379Z,9.01
2022-09-20T01:49:26.364Z,9.01
2022-09-20T01:50:26.357Z,9.01
2022-09-20T01:51:26.381Z,9.00
2022-09-20T01:52:26.338Z,9.00
2022-09-20T01:53:26.331Z,9.00
2022-09-20T01:54:26.309Z,8.97
2022-09-20T01:55:26.309Z,8.97
2022-09-20T01:56:26.300Z,8.96
2022-09-20T01:57:27.551Z,8.96
2022-09-20T01:58:26.280Z,8.96
2022-09-20T01:59:26.821Z,8.93
2022-09-20T02:00:26.274Z,8.91
2022-09-20T02:01:26.356Z,8.91
2022-09-20T02:02:26.293Z,8.86
2022-09-20T02:03:26.260Z,8.83
2022-09-20T02:04:26.245Z,8.85
2022-09-20T02:05:26.242Z,8.83
2022-09-20T02:06:26.213Z,8.83
2022-09-20T02:07:26.225Z,8.80
2022-09-20T02:08:26.207Z,8.82
2022-09-20T02:09:26.203Z,8.82
2022-09-20T02:10:26.198Z,8.78
2022-09-20T02:11:26.183Z,8.78
2022-09-20T02:12:28.533Z,8.78
2022-09-20T02:13:26.164Z,8.73
2022-09-20T02:14:26.146Z,8.78
2022-09-20T02:15:26.176Z,8.78
2022-09-20T02:16:26.173Z,8.75
2022-09-20T02:17:26.125Z,8.73
2022-09-20T02:18:26.116Z,8.76
2022-09-20T02:19:26.120Z,8.75
2022-09-20T02:20:26.097Z,8.73
2022-09-20T02:21:26.120Z,8.73
2022-09-20T02:22:26.077Z,8.73
2022-09-20T02:23:26.090Z,8.73
2022-09-20T02:24:26.078Z,8.70
2022-09-20T02:25:26.057Z,8.70
2022-09-20T02:26:26.048Z,8.67
2022-09-20T02:27:26.072Z,8.68
2022-09-20T02:28:26.047Z,8.67
2022-09-20T02:29:26.018Z,8.64
2022-09-20T02:30:26.010Z,8.64
2022-09-20T02:31:26.045Z,8.63
2022-09-20T02:32:26.009Z,8.63
2022-09-20T02:33:26.016Z,8.63
2022-09-20T02:34:25.980Z,8.63
2022-09-20T02:35:25.984Z,8.61
2022-09-20T02:36:25.975Z,8.60
2022-09-20T02:37:25.961Z,8.57
2022-09-20T02:38:25.941Z,8.60
2022-09-20T02:39:25.952Z,8.58
2022-09-20T02:40:26.013Z,8.58
2022-09-20T02:41:25.922Z,8.58
2022-09-20T02:42:25.934Z,8.58
2022-09-20T02:43:25.916Z,8.57
2022-09-20T02:44:25.893Z,8.55
2022-09-20T02:45:25.963Z,8.55
2022-09-20T02:46:25.873Z,8.55
2022-09-20T02:47:25.875Z,8.54
2022-09-20T02:48:25.987Z,8.52
2022-09-20T02:49:25.868Z,8.54
2022-09-20T02:50:25.843Z,8.52
2022-09-20T02:51:25.846Z,8.54
2022-09-20T02:52:25.855Z,8.55
2022-09-20T02:53:25.836Z,8.54
2022-09-20T02:54:25.821Z,8.54
2022-09-20T02:55:25.820Z,8.52
2022-09-20T02:56:25.795Z,8.54
2022-09-20T02:57:26.791Z,8.54
2022-09-20T02:58:25.791Z,8.54
2022-09-20T02:59:25.767Z,8.54
2022-09-20T03:00:25.757Z,8.52
2022-09-20T03:01:25.818Z,8.52
2022-09-20T03:02:25.784Z,8.50
2022-09-20T03:03:25.772Z,8.50
2022-09-20T03:04:25.730Z,8.54
2022-09-20T03:05:25.718Z,8.52
2022-09-20T03:06:25.710Z,8.52
2022-09-20T03:07:25.700Z,8.50
2022-09-20T03:08:25.702Z,8.52
2022-09-20T03:09:25.723Z,8.50
2022-09-20T03:10:25.673Z,8.52
2022-09-20T03:11:25.683Z,8.50
2022-09-20T03:12:25.660Z,8.50
2022-09-20T03:13:25.651Z,8.50
2022-09-20T03:14:25.639Z,8.52
2022-09-20T03:15:25.665Z,8.52
2022-09-20T03:16:25.660Z,8.49
2022-09-20T03:17:25.633Z,8.50
2022-09-20T03:18:25.602Z,8.47
2022-09-20T03:19:25.617Z,8.50
2022-09-20T03:20:25.597Z,8.49
2022-09-20T03:21:25.615Z,8.49
2022-09-20T03:22:25.562Z,8.49
2022-09-20T03:23:25.577Z,8.47
2022-09-20T03:24:25.620Z,8.46
2022-09-20T03:25:25.564Z,8.45
2022-09-20T03:26:25.547Z,8.42
2022-09-20T03:27:25.639Z,8.46
2022-09-20T03:28:25.515Z,8.42
2022-09-20T03:29:25.518Z,8.43
2022-09-20T03:30:25.496Z,8.42
2022-09-20T03:31:25.553Z,8.42
2022-09-20T03:32:25.488Z,8.42
2022-09-20T03:33:25.498Z,8.39
2022-09-20T03:34:25.464Z,8.36
2022-09-20T03:35:25.470Z,8.36
2022-09-20T03:36:25.446Z,8.37
2022-09-20T03:37:25.461Z,8.34
2022-09-20T03:38:25.428Z,8.32
2022-09-20T03:39:25.447Z,8.31
2022-09-20T03:40:25.479Z,8.31
2022-09-20T03:41:25.407Z,8.28
2022-09-20T03:42:25.400Z,8.29
2022-09-20T03:43:25.402Z,8.29
2022-09-20T03:44:25.379Z,8.27
2022-09-20T03:45:25.402Z,8.28
2022-09-20T03:46:25.373Z,8.28
2022-09-20T03:47:25.373Z,8.27
2022-09-20T03:48:25.353Z,8.28
2022-09-20T03:49:25.342Z,8.25
2022-09-20T03:50:25.343Z,8.28
2022-09-20T03:51:26.145Z,8.27
2022-09-20T03:52:25.322Z,8.28
2022-09-20T03:53:25.324Z,8.28
2022-09-20T03:54:25.291Z,8.28
2022-09-20T03:55:25.292Z,8.28
2022-09-20T03:56:25.272Z,8.27
2022-09-20T03:57:25.285Z,8.28
2022-09-20T03:58:25.263Z,8.29
2022-09-20T03:59:25.273Z,8.25
2022-09-20T04:00:25.256Z,8.24
2022-09-20T04:01:25.308Z,8.27
2022-09-20T04:02:25.254Z,8.25
2022-09-20T04:03:25.240Z,8.24
2022-09-20T04:04:25.217Z,8.24
2022-09-20T04:05:25.204Z,8.24
2022-09-20T04:06:25.198Z,8.24
2022-09-20T04:07:25.185Z,8.24
2022-09-20T04:08:25.188Z,8.21
2022-09-20T04:09:25.176Z,8.21
2022-09-20T04:10:25.170Z,8.21
2022-09-20T04:11:25.159Z,8.21
2022-09-20T04:12:25.149Z,8.18
2022-09-20T04:13:25.150Z,8.20
2022-09-20T04:14:25.130Z,8.18
2022-09-20T04:15:25.151Z,8.17
2022-09-20T04:16:25.214Z,8.13
2022-09-20T04:17:25.098Z,8.14
2022-09-20T04:18:25.101Z,8.12
2022-09-20T04:19:26.830Z,8.12
2022-09-20T04:20:25.068Z,8.10
2022-09-20T04:21:25.081Z,8.10
2022-09-20T04:22:25.062Z,8.07
2022-09-20T04:23:25.048Z,8.06
2022-09-20T04:24:25.055Z,8.06
2022-09-20T04:25:25.043Z,8.07
2022-09-20T04:26:25.019Z,8.06
2022-09-20T04:27:25.030Z,8.06
2022-09-20T04:28:25.000Z,8.04
2022-09-20T04:29:25.000Z,8.06
2022-09-20T04:30:24.995Z,8.04
2022-09-20T04:31:25.025Z,8.03
2022-09-20T04:32:25.111Z,8.04
2022-09-20T04:33:24.980Z,8.03
2022-09-20T04:34:24.959Z,8.02
2022-09-20T04:35:24.956Z,8.00
2022-09-20T04:36:24.942Z,8.02
2022-09-20T04:37:24.922Z,7.96
2022-09-20T04:38:24.922Z,7.96
2022-09-20T04:39:24.937Z,7.95
2022-09-20T04:40:25.023Z,7.95
2022-09-20T04:41:24.893Z,7.96
2022-09-20T04:42:24.884Z,7.95
2022-09-20T04:43:24.888Z,7.91
2022-09-20T04:44:24.887Z,7.92
2022-09-20T04:45:24.885Z,7.91
2022-09-20T04:46:24.931Z,7.92
2022-09-20T04:47:24.858Z,7.91
2022-09-20T04:48:24.843Z,7.91
2022-09-20T04:49:24.825Z,7.92
2022-09-20T04:50:24.826Z,7.91
2022-09-20T04:51:24.830Z,7.91
2022-09-20T04:52:24.807Z,7.89
2022-09-20T04:53:24.802Z,7.88
2022-09-20T04:54:24.803Z,7.85
2022-09-20T04:55:24.776Z,7.86
2022-09-20T04:56:24.788Z,7.85
2022-09-20T04:57:24.780Z,7.86
2022-09-20T04:58:24.759Z,7.86
2022-09-20T04:59:24.752Z,7.84
2022-09-20T05:00:24.739Z,7.82
2022-09-20T05:01:26.610Z,7.84
2022-09-20T05:02:24.770Z,7.82
2022-09-20T05:03:24.717Z,7.81
2022-09-20T05:04:24.713Z,7.81
2022-09-20T05:05:24.704Z,7.79
2022-09-20T05:06:24.697Z,7.81
2022-09-20T05:07:24.684Z,7.81
2022-09-20T05:08:24.685Z,7.82
2022-09-20T05:09:24.662Z,7.82
2022-09-20T05:10:24.651Z,7.77
2022-09-20T05:11:24.655Z,7.81
2022-09-20T05:12:24.651Z,7.79
2022-09-20T05:13:24.622Z,7.77
2022-09-20T05:14:24.685Z,7.79
2022-09-20T05:15:24.622Z,7.76
2022-09-20T05:16:24.657Z,7.77
2022-09-20T05:17:24.606Z,7.77
2022-09-20T05:18:24.597Z,7.77
2022-09-20T05:19:24.573Z,7.77
2022-09-20T05:20:24.572Z,7.74
2022-09-20T05:21:24.564Z,7.76
2022-09-20T05:22:24.553Z,7.74
2022-09-20T05:23:24.536Z,7.76
2022-09-20T05:24:24.548Z,7.74
2022-09-20T05:25:24.528Z,7.77
2022-09-20T05:26:24.531Z,7.76
2022-09-20T05:27:24.528Z,7.76
2022-09-20T05:28:24.509Z,7.76
2022-09-20T05:29:24.505Z,7.77
2022-09-20T05:30:24.484Z,7.77
2022-09-20T05:31:24.504Z,7.77
2022-09-20T05:32:24.481Z,7.76
2022-09-20T05:33:24.485Z,7.76
2022-09-20T05:34:24.450Z,7.74
2022-09-20T05:35:24.439Z,7.76
2022-09-20T05:36:24.442Z,7.77
2022-09-20T05:37:24.418Z,7.79
2022-09-20T05:38:24.482Z,7.79
2022-09-20T05:39:24.411Z,7.79
2022-09-20T05:40:24.423Z,7.77
2022-09-20T05:41:24.394Z,7.81
2022-09-20T05:42:24.379Z,7.81
2022-09-20T05:43:24.384Z,7.84
2022-09-20T05:44:24.382Z,7.84
2022-09-20T05:45:24.471Z,7.84
2022-09-20T05:46:24.364Z,7.85
2022-09-20T05:47:24.346Z,7.86
2022-09-20T05:48:24.345Z,7.89
2022-09-20T05:49:24.338Z,7.92
2022-09-20T05:50:24.312Z,7.91
2022-09-20T05:51:24.325Z,7.91
2022-09-20T05:52:24.307Z,7.95
2022-09-20T05:53:24.296Z,7.94
2022-09-20T05:54:24.287Z,7.96
2022-09-20T05:55:24.276Z,7.99
2022-09-20T05:56:24.264Z,8.00
2022-09-20T05:57:24.277Z,8.00
2022-09-20T05:58:24.258Z,8.02
2022-09-20T05:59:24.234Z,8.03
2022-09-20T06:00:24.224Z,8.04
2022-09-20T06:01:24.282Z,8.03
2022-09-20T06:02:24.311Z,8.06
2022-09-20T06:03:24.205Z,8.07
2022-09-20T06:04:24.209Z,8.09
2022-09-20T06:05:24.182Z,8.09
2022-09-20T06:06:24.189Z,8.13
2022-09-20T06:07:24.167Z,8.12
2022-09-20T06:08:24.176Z,8.14
2022-09-20T06:09:24.157Z,8.17
2022-09-20T06:10:24.161Z,8.17
2022-09-20T06:11:24.128Z,8.20
2022-09-20T06:12:24.127Z,8.18
2022-09-20T06:13:24.118Z,8.20
2022-09-20T06:14:24.121Z,8.21
2022-09-20T06:15:24.130Z,8.20
2022-09-20T06:16:24.141Z,8.21
2022-09-20T06:17:24.092Z,8.21
2022-09-20T06:18:24.095Z,8.24
2022-09-20T06:19:24.067Z,8.21
2022-09-20T06:20:24.073Z,8.24
2022-09-20T06:21:24.059Z,8.22
2022-09-20T06:22:24.053Z,8.25
2022-09-20T06:23:24.030Z,8.27
2022-09-20T06:24:24.030Z,8.25
2022-09-20T06:25:24.012Z,8.27
2022-09-20T06:26:24.012Z,8.29
2022-09-20T06:27:24.025Z,8.29
2022-09-20T06:28:24.006Z,8.36
2022-09-20T06:29:23.995Z,8.34
2022-09-20T06:30:24.043Z,8.39
2022-09-20T06:31:23.984Z,8.39
2022-09-20T06:32:23.976Z,8.40
2022-09-20T06:33:23.969Z,8.42
2022-09-20T06:34:23.956Z,8.40
2022-09-20T06:35:23.937Z,8.43
2022-09-20T06:36:23.924Z,8.47
2022-09-20T06:37:23.926Z,8.45
2022-09-20T06:38:23.955Z,8.49
2022-09-20T06:39:23.937Z,8.52
2022-09-20T06:40:23.974Z,8.50
2022-09-20T06:41:23.888Z,8.52
2022-09-20T06:42:27.015Z,8.55
2022-09-20T06:43:23.856Z,8.58
2022-09-20T06:44:23.856Z,8.58
2022-09-20T06:45:23.850Z,8.60
2022-09-20T06:46:23.851Z,8.60
2022-09-20T06:47:23.826Z,8.61
2022-09-20T06:48:23.838Z,8.65
2022-09-20T06:49:23.821Z,8.65
2022-09-20T06:50:23.821Z,8.68
2022-09-20T06:51:23.819Z,8.68
2022-09-20T06:52:23.802Z,8.68
2022-09-20T06:53:23.792Z,8.68
2022-09-20T06:54:23.782Z,8.68
2022-09-20T06:55:28.428Z,8.70
2022-09-20T06:56:23.758Z,8.71
2022-09-20T06:57:23.762Z,8.75
2022-09-20T06:58:23.739Z,8.75
2022-09-20T06:59:23.728Z,8.78
2022-09-20T07:00:23.733Z,8.80
2022-09-20T07:01:30.233Z,8.82
2022-09-20T07:02:23.743Z,8.85
2022-09-20T07:03:23.700Z,8.85
2022-09-20T07:04:23.701Z,8.91
2022-09-20T07:05:23.671Z,8.97
2022-09-20T07:06:23.683Z,9.01
2022-09-20T07:07:23.665Z,9.10
2022-09-20T07:08:23.665Z,9.20
2022-09-20T07:09:23.652Z,9.31
2022-09-20T07:10:23.687Z,9.44
2022-09-20T07:11:23.647Z,9.55
2022-09-20T07:12:23.624Z,9.68
2022-09-20T07:13:23.617Z,9.81
2022-09-20T07:14:23.617Z,9.96
2022-09-20T07:15:23.617Z,10.14
2022-09-20T07:16:23.606Z,10.31
2022-09-20T07:17:23.574Z,10.44
2022-09-20T07:18:23.566Z,10.62
2022-09-20T07:19:23.579Z,10.75
2022-09-20T07:20:23.557Z,10.88
2022-09-20T07:21:23.545Z,11.01
2022-09-20T07:22:23.551Z,11.16
2022-09-20T07:23:23.540Z,11.26
2022-09-20T07:24:23.538Z,11.39
2022-09-20T07:25:23.509Z,11.48
2022-09-20T07:26:23.507Z,11.56
2022-09-20T07:27:26.431Z,11.64
2022-09-20T07:28:23.487Z,11.72
2022-09-20T07:29:23.492Z,11.81
2022-09-20T07:30:23.601Z,11.88
2022-09-20T07:31:23.534Z,11.96
2022-09-20T07:32:23.473Z,12.01
2022-09-20T07:33:23.450Z,12.07
2022-09-20T07:34:23.453Z,12.15
2022-09-20T07:35:23.430Z,12.16
2022-09-20T07:36:23.420Z,12.23
2022-09-20T07:37:23.414Z,12.26
2022-09-20T07:38:23.423Z,12.31
2022-09-20T07:39:23.401Z,12.38
2022-09-20T07:40:23.511Z,12.41
2022-09-20T07:41:23.387Z,12.43
2022-09-20T07:42:23.386Z,12.46
2022-09-20T07:43:23.363Z,12.51
2022-09-20T07:44:23.353Z,12.51
2022-09-20T07:45:23.385Z,12.55
2022-09-20T07:46:23.359Z,12.58
2022-09-20T07:47:23.344Z,12.59
2022-09-20T07:48:23.326Z,12.66
2022-09-20T07:49:23.314Z,12.70
2022-09-20T07:50:23.305Z,12.73
2022-09-20T07:51:23.310Z,12.81
2022-09-20T07:52:23.298Z,12.84
2022-09-20T07:53:23.289Z,12.88
2022-09-20T07:54:23.274Z,12.92
2022-09-20T07:55:23.269Z,12.96
2022-09-20T07:56:23.256Z,12.99
2022-09-20T07:57:23.248Z,13.06
2022-09-20T07:58:23.251Z,13.09
2022-09-20T07:59:23.231Z,13.13
2022-09-20T08:00:23.218Z,13.17
2022-09-20T08:01:23.258Z,13.25
2022-09-20T08:02:23.241Z,13.29
2022-09-20T08:03:23.213Z,13.39
2022-09-20T08:04:23.192Z,13.43
2022-09-20T08:05:23.183Z,13.48
2022-09-20T08:06:23.161Z,13.53
2022-09-20T08:07:23.164Z,13.54
2022-09-20T08:08:23.149Z,13.62
2022-09-20T08:09:23.154Z,13.69
2022-09-20T08:10:23.130Z,13.71
2022-09-20T08:11:23.369Z,13.72
2022-09-20T08:14:23.310Z,13.84
2022-09-20T08:15:23.102Z,13.90
2022-09-20T08:16:23.238Z,13.96
2022-09-20T08:17:23.062Z,14.02
2022-09-20T08:18:23.068Z,14.06
2022-09-20T08:19:23.062Z,14.11
2022-09-20T08:20:23.048Z,14.17
2022-09-20T08:21:23.058Z,14.21
2022-09-20T08:22:23.024Z,14.23
2022-09-20T08:23:24.154Z,14.30
2022-09-20T08:24:23.006Z,14.31
2022-09-20T08:25:22.996Z,14.35
2022-09-20T08:26:23.001Z,14.35
2022-09-20T08:27:22.992Z,14.36
2022-09-20T08:28:22.967Z,14.34
2022-09-20T08:29:22.955Z,14.41
2022-09-20T08:30:27.448Z,14.42
2022-09-20T08:31:22.958Z,14.48
2022-09-20T08:32:22.928Z,14.48
2022-09-20T08:33:22.929Z,14.46
2022-09-20T08:34:22.910Z,14.49
2022-09-20T08:35:22.916Z,14.57
2022-09-20T08:36:22.911Z,14.59
2022-09-20T08:37:22.880Z,14.61
2022-09-20T08:40:22.921Z,14.69
2022-09-20T08:41:22.852Z,14.71
2022-09-20T08:42:22.855Z,14.69
2022-09-20T08:43:22.836Z,14.67
2022-09-20T08:44:22.836Z,14.72
2022-09-20T08:45:33.735Z,14.71
2022-09-20T08:46:23.910Z,14.72
2022-09-20T08:47:22.808Z,14.74
2022-09-20T08:48:22.808Z,14.78
2022-09-20T08:49:22.783Z,14.79
2022-09-20T08:50:22.765Z,14.78
2022-09-20T08:51:23.145Z,14.78
2022-09-20T08:52:22.745Z,14.82
2022-09-20T08:53:22.745Z,14.82
2022-09-20T08:54:22.750Z,14.82
2022-09-20T08:55:22.728Z,14.82
2022-09-20T08:56:22.715Z,14.82
2022-09-20T08:57:22.741Z,14.87
2022-09-20T08:58:22.711Z,14.90
2022-09-20T08:59:22.708Z,14.94
2022-09-20T09:00:22.685Z,14.97
2022-09-20T09:01:22.722Z,14.98
2022-09-20T09:02:22.789Z,15.00
2022-09-20T09:03:22.677Z,15.00
2022-09-20T09:04:22.641Z,15.01
2022-09-20T09:05:22.654Z,15.01
2022-09-20T09:06:22.628Z,15.03
2022-09-20T09:07:22.620Z,15.05
2022-09-20T09:08:22.612Z,15.05
2022-09-20T09:09:22.632Z,15.05
2022-09-20T09:10:22.606Z,15.07
2022-09-20T09:11:22.596Z,15.09
2022-09-20T09:12:22.573Z,15.07
2022-09-20T09:13:22.586Z,15.07
2022-09-20T09:14:22.563Z,15.09
2022-09-20T09:15:22.577Z,15.09
2022-09-20T09:16:25.675Z,15.13
2022-09-20T09:17:27.363Z,15.16
2022-09-20T09:18:22.525Z,15.19
2022-09-20T09:19:22.522Z,15.20
2022-09-20T09:20:22.547Z,15.20
2022-09-20T09:21:22.525Z,15.22
2022-09-20T09:22:22.491Z,15.19
2022-09-20T09:23:22.502Z,15.18
2022-09-20T09:24:22.491Z,15.15
2022-09-20T09:25:22.482Z,15.13
2022-09-20T09:26:22.481Z,15.13
2022-09-20T09:27:22.485Z,15.12
2022-09-20T09:28:22.439Z,15.16
2022-09-20T09:29:22.453Z,15.16
2022-09-20T09:30:22.436Z,15.19
2022-09-20T09:31:22.506Z,15.25
2022-09-20T09:32:22.399Z,15.27
2022-09-20T09:33:22.433Z,15.30
2022-09-20T09:34:22.404Z,15.31
2022-09-20T09:35:22.401Z,15.33
2022-09-20T09:36:22.370Z,15.33
2022-09-20T09:37:26.337Z,15.35
2022-09-20T09:38:22.366Z,15.35
2022-09-20T09:39:22.372Z,15.35
2022-09-20T09:40:22.382Z,15.34
2022-09-20T09:41:22.345Z,15.37
2022-09-20T09:42:22.326Z,15.38
2022-09-20T09:43:22.326Z,15.43
2022-09-20T09:44:22.301Z,15.46
2022-09-20T09:45:22.318Z,15.48
2022-09-20T09:46:22.400Z,15.49
2022-09-20T09:47:22.275Z,15.48
2022-09-20T09:48:22.279Z,15.44
2022-09-20T09:49:22.269Z,15.49
2022-09-20T09:50:22.245Z,15.46
2022-09-20T09:51:22.263Z,15.44
2022-09-20T09:52:22.241Z,15.41
2022-09-20T09:53:22.228Z,15.38
2022-09-20T09:54:22.220Z,15.34
2022-09-20T09:55:22.221Z,15.35
2022-09-20T09:56:22.196Z,15.34
2022-09-20T09:57:22.199Z,15.33
2022-09-20T09:58:22.179Z,15.30
2022-09-20T09:59:22.177Z,15.33
2022-09-20T10:00:22.804Z,15.37
2022-09-20T10:01:22.206Z,15.38
2022-09-20T10:02:22.207Z,15.43
2022-09-20T10:03:22.267Z,15.43
2022-09-20T10:04:22.130Z,15.44
2022-09-20T10:05:22.121Z,15.41
2022-09-20T10:06:22.124Z,15.40
2022-09-20T10:07:22.115Z,15.34
2022-09-20T10:08:22.105Z,15.28
2022-09-20T10:09:22.106Z,15.28
2022-09-20T10:10:22.073Z,15.19
2022-09-20T10:11:22.075Z,15.18
2022-09-20T10:12:22.053Z,15.13
2022-09-20T10:13:22.054Z,15.11
2022-09-20T10:14:22.054Z,15.04
2022-09-20T10:15:22.054Z,15.01
2022-09-20T10:16:22.064Z,14.95
2022-09-20T10:17:22.028Z,14.91
2022-09-20T10:18:22.019Z,14.86
2022-09-20T10:19:22.807Z,14.82
2022-09-20T10:20:21.986Z,14.79
2022-09-20T10:21:22.021Z,14.78
2022-09-20T10:22:21.967Z,14.74
2022-09-20T10:23:45.141Z,14.75
2022-09-20T10:24:21.968Z,14.74
2022-09-20T10:25:21.954Z,14.74
2022-09-20T10:26:21.943Z,14.78
2022-09-20T10:27:21.966Z,14.79
2022-09-20T10:28:21.920Z,14.82
2022-09-20T10:29:21.923Z,14.83
2022-09-20T10:30:21.912Z,14.87
2022-09-20T10:31:25.647Z,14.93
2022-09-20T10:32:21.880Z,14.93
2022-09-20T10:33:21.891Z,14.97
2022-09-20T10:34:21.862Z,14.95
2022-09-20T10:35:21.867Z,14.97
2022-09-20T10:36:21.856Z,14.98
2022-09-20T10:37:21.842Z,14.98
2022-09-20T10:38:21.824Z,14.97
2022-09-20T10:39:21.841Z,14.95
2022-09-20T10:40:21.876Z,14.94
2022-09-20T10:41:21.817Z,14.91
2022-09-20T10:42:21.793Z,14.90
2022-09-20T10:43:21.863Z,14.90
2022-09-20T10:44:21.772Z,14.91
2022-09-20T10:45:50.878Z,14.90
2022-09-20T10:46:31.760Z,14.90
2022-09-20T10:47:21.775Z,14.86
2022-09-20T10:48:21.751Z,14.86
2022-09-20T10:49:21.740Z,14.83
2022-09-20T10:50:21.718Z,14.82
2022-09-20T10:51:21.728Z,14.79
2022-09-20T10:52:21.698Z,14.78
2022-09-20T10:53:21.710Z,14.78
2022-09-20T10:54:21.678Z,14.74
2022-09-20T10:55:21.678Z,14.74
2022-09-20T10:56:21.673Z,14.71
2022-09-20T10:57:21.669Z,14.72
2022-09-20T10:58:21.653Z,14.71
2022-09-20T10:59:21.640Z,14.71
2022-09-20T11:00:21.628Z,14.69
2022-09-20T11:01:21.703Z,14.67
2022-09-20T11:02:21.672Z,14.67
2022-09-20T11:03:21.622Z,14.63
2022-09-20T11:04:21.607Z,14.60
2022-09-20T11:05:21.596Z,14.57
2022-09-20T11:06:21.573Z,14.57
2022-09-20T11:07:21.563Z,14.57
2022-09-20T11:08:21.568Z,14.56
2022-09-20T11:09:21.562Z,14.56
2022-09-20T11:10:21.548Z,14.56
2022-09-20T11:11:21.545Z,14.57
2022-09-20T11:12:21.528Z,14.59
2022-09-20T11:13:21.527Z,14.59
2022-09-20T11:14:21.497Z,14.60
2022-09-20T11:15:21.519Z,14.60
2022-09-20T11:16:21.540Z,14.60
2022-09-20T11:17:21.477Z,14.61
2022-09-20T11:18:21.468Z,14.60
2022-09-20T11:19:21.471Z,14.61
2022-09-20T11:20:21.463Z,14.59
2022-09-20T11:21:21.473Z,14.59
2022-09-20T11:22:21.427Z,14.54
2022-09-20T11:23:21.422Z,14.57
2022-09-20T11:24:21.423Z,14.57
2022-09-20T11:25:25.000Z,14.57
2022-09-20T11:26:21.390Z,14.56
2022-09-20T11:27:21.510Z,14.59
2022-09-20T11:28:21.370Z,14.60
2022-09-20T11:29:21.370Z,14.60
2022-09-20T11:30:21.365Z,14.60
2022-09-20T11:31:21.378Z,14.64
2022-09-20T11:32:21.345Z,14.67
2022-09-20T11:33:21.356Z,14.69
2022-09-20T11:34:21.318Z,14.71
2022-09-20T11:35:21.326Z,14.74
2022-09-20T11:36:21.293Z,14.75
2022-09-20T11:37:21.307Z,14.78
2022-09-20T11:38:21.284Z,14.78
2022-09-20T11:39:21.308Z,14.79
2022-09-20T11:40:21.319Z,14.79
2022-09-20T11:41:21.255Z,14.79
2022-09-20T11:42:21.245Z,14.83
2022-09-20T11:43:21.252Z,14.82
2022-09-20T11:44:21.239Z,14.85
2022-09-20T11:45:25.121Z,14.87
2022-09-20T11:46:21.280Z,14.90
2022-09-20T11:47:42.920Z,14.91
2022-09-20T11:48:21.307Z,14.93
2022-09-20T11:49:21.201Z,14.97
2022-09-20T11:50:21.192Z,15.00
2022-09-20T11:51:21.193Z,14.98
2022-09-20T11:52:21.163Z,14.98
2022-09-20T11:53:21.149Z,14.98
2022-09-20T11:54:21.151Z,14.98
2022-09-20T11:55:21.144Z,15.00
2022-09-20T11:56:21.134Z,14.98
2022-09-20T11:57:21.123Z,14.95
2022-09-20T11:58:21.102Z,14.97
2022-09-20T11:59:21.100Z,14.95
2022-09-20T12:00:21.095Z,14.94
2022-09-20T12:01:23.948Z,14.91
2022-09-20T12:02:21.208Z,14.86
2022-09-20T12:03:21.139Z,14.83
2022-09-20T12:04:32.229Z,14.82
2022-09-20T12:05:21.057Z,14.80
2022-09-20T12:06:21.037Z,14.78
2022-09-20T12:07:21.030Z,14.71
2022-09-20T12:08:21.028Z,14.67
2022-09-20T12:09:21.015Z,14.64
2022-09-20T12:10:21.009Z,14.61
2022-09-20T12:11:20.986Z,14.61
2022-09-20T12:12:20.976Z,14.60
2022-09-20T12:13:20.977Z,14.59
2022-09-20T12:14:20.957Z,14.59
2022-09-20T12:15:20.957Z,14.57
2022-09-20T12:16:20.972Z,14.60
2022-09-20T12:17:20.951Z,14.57
2022-09-20T12:18:20.918Z,14.56
2022-09-20T12:19:20.919Z,14.57
2022-09-20T12:20:20.899Z,14.57
2022-09-20T12:21:20.911Z,14.56
2022-09-20T12:22:20.894Z,14.54
2022-09-20T12:23:20.895Z,14.54
2022-09-20T12:24:20.868Z,14.56
2022-09-20T12:25:20.874Z,14.57
2022-09-20T12:26:20.917Z,14.57
2022-09-20T12:27:20.852Z,14.60
2022-09-20T12:28:20.841Z,14.61
2022-09-20T12:29:20.845Z,14.64
2022-09-20T12:30:20.836Z,14.64
2022-09-20T12:31:20.877Z,14.67
2022-09-20T12:32:20.793Z,14.67
2022-09-20T12:33:20.825Z,14.71
2022-09-20T12:34:20.785Z,14.75
2022-09-20T12:35:20.788Z,14.74
2022-09-20T12:36:20.768Z,14.78
2022-09-20T12:37:20.755Z,14.78
2022-09-20T12:38:20.759Z,14.75
2022-09-20T12:39:23.406Z,14.74
2022-09-20T12:40:20.772Z,14.75
2022-09-20T12:41:27.861Z,14.74
2022-09-20T12:42:21.357Z,14.74
2022-09-20T12:43:20.711Z,14.69
2022-09-20T12:44:20.688Z,14.67
2022-09-20T12:45:20.721Z,14.69
2022-09-20T12:46:20.702Z,14.64
2022-09-20T12:47:20.681Z,14.63
2022-09-20T12:48:20.649Z,14.64
2022-09-20T12:49:20.649Z,14.63
2022-09-20T12:50:20.630Z,14.63
2022-09-20T12:51:20.651Z,14.64
2022-09-20T12:52:20.624Z,14.61
2022-09-20T12:53:20.611Z,14.63
2022-09-20T12:54:20.604Z,14.64
2022-09-20T12:55:20.592Z,14.64
2022-09-20T12:56:20.594Z,14.64
2022-09-20T12:57:20.596Z,14.61
2022-09-20T12:58:20.575Z,14.64
2022-09-20T12:59:20.553Z,14.66
2022-09-20T13:00:20.557Z,14.69
2022-09-20T13:01:20.583Z,14.71
2022-09-20T13:02:20.571Z,14.74
2022-09-20T13:03:20.548Z,14.79
2022-09-20T13:04:20.518Z,14.79
2022-09-20T13:05:20.502Z,14.80
2022-09-20T13:06:20.504Z,14.83
2022-09-20T13:07:20.486Z,14.86
2022-09-20T13:08:20.501Z,14.85
2022-09-20T13:09:20.485Z,14.85
2022-09-20T13:10:20.467Z,14.85